sensor_id;sensor_type;location;lat;lon;timestamp;P1;durP1;ratioP1;P2;durP2;ratioP2
25341;SDS011;13298;48.792;9.154;2022-09-12T00:00:27;9.20;;;7.90;;
25341;SDS011;13298;48.792;9.154;2022-09-12T00:02:55;9.10;;;7.40;;
25341;SDS011;13298;48.792;9.154;2022-09-12T00:05:21;9.90;;;8.23;;
25341;SDS011;13298;48.792;9.154;2022-09-12T00:07:47;9.30;;;8.07;;
25341;SDS011;13298;48.792;9.154;2022-09-12T00:10:14;9.25;;;7.40;;
25341;SDS011;13298;48.792;9.154;2022-09-12T00:12:40;9.50;;;8.15;;
25341;SDS011;13298;48.792;9.154;2022-09-12T00:15:06;11.27;;;7.82;;
25341;SDS011;13298;48.792;9.154;2022-09-12T00:17:33;8.80;;;7.38;;
25341;SDS011;13298;48.792;9.154;2022-09-12T00:20:00;9.63;;;8.10;;
25341;SDS011;13298;48.792;9.154;2022-09-12T00:22:27;10.35;;;8.00;;
25341;SDS011;13298;48.792;9.154;2022-09-12T00:24:52;10.55;;;7.55;;
25341;SDS011;13298;48.792;9.154;2022-09-12T00:27:18;12.02;;;8.82;;
25341;SDS011;13298;48.792;9.154;2022-09-12T00:29:44;10.32;;;7.85;;
25341;SDS011;13298;48.792;9.154;2022-09-12T00:32:10;10.90;;;8.13;;
25341;SDS011;13298;48.792;9.154;2022-09-12T00:34:35;8.57;;;7.68;;
25341;SDS011;13298;48.792;9.154;2022-09-12T00:37:01;8.88;;;7.38;;
25341;SDS011;13298;48.792;9.154;2022-09-12T00:39:27;9.35;;;7.68;;
25341;SDS011;13298;48.792;9.154;2022-09-12T00:41:53;11.60;;;7.78;;
25341;SDS011;13298;48.792;9.154;2022-09-12T00:46:48;9.95;;;7.78;;
25341;SDS011;13298;48.792;9.154;2022-09-12T00:49:45;9.73;;;8.10;;
25341;SDS011;13298;48.792;9.154;2022-09-12T00:52:43;8.98;;;7.30;;
25341;SDS011;13298;48.792;9.154;2022-09-12T00:55:10;10.25;;;8.30;;
25341;SDS011;13298;48.792;9.154;2022-09-12T00:57:47;9.20;;;8.02;;
25341;SDS011;13298;48.792;9.154;2022-09-12T01:00:24;9.45;;;8.18;;
25341;SDS011;13298;48.792;9.154;2022-09-12T01:02:56;10.73;;;7.97;;
25341;SDS011;13298;48.792;9.154;2022-09-12T01:05:26;9.30;;;7.60;;
25341;SDS011;13298;48.792;9.154;2022-09-12T01:07:54;10.73;;;8.30;;
25341;SDS011;13298;48.792;9.154;2022-09-12T01:10:21;10.80;;;8.13;;
25341;SDS011;13298;48.792;9.154;2022-09-12T01:12:48;9.70;;;7.65;;
25341;SDS011;13298;48.792;9.154;2022-09-12T01:15:14;9.90;;;8.30;;
25341;SDS011;13298;48.792;9.154;2022-09-12T01:32:45;13.07;;;8.70;;
25341;SDS011;13298;48.792;9.154;2022-09-12T01:38:57;9.07;;;8.15;;
25341;SDS011;13298;48.792;9.154;2022-09-12T01:44:49;9.30;;;8.10;;
25341;SDS011;13298;48.792;9.154;2022-09-12T01:47:56;10.60;;;8.43;;
25341;SDS011;13298;48.792;9.154;2022-09-12T01:50:33;11.45;;;9.18;;
25341;SDS011;13298;48.792;9.154;2022-09-12T01:53:07;11.77;;;8.57;;
25341;SDS011;13298;48.792;9.154;2022-09-12T01:55:47;10.15;;;8.25;;
25341;SDS011;13298;48.792;9.154;2022-09-12T01:58:23;12.88;;;9.35;;
25341;SDS011;13298;48.792;9.154;2022-09-12T02:04:08;9.57;;;8.20;;
25341;SDS011;13298;48.792;9.154;2022-09-12T02:06:50;10.15;;;8.77;;
25341;SDS011;13298;48.792;9.154;2022-09-12T02:09:44;11.60;;;8.90;;
25341;SDS011;13298;48.792;9.154;2022-09-12T02:12:15;12.40;;;9.50;;
25341;SDS011;13298;48.792;9.154;2022-09-12T02:14:48;9.48;;;8.40;;
25341;SDS011;13298;48.792;9.154;2022-09-12T02:17:19;11.07;;;9.13;;
25341;SDS011;13298;48.792;9.154;2022-09-12T02:19:50;10.95;;;8.70;;
25341;SDS011;13298;48.792;9.154;2022-09-12T02:22:21;13.60;;;9.68;;
25341;SDS011;13298;48.792;9.154;2022-09-12T02:24:53;10.23;;;9.10;;
25341;SDS011;13298;48.792;9.154;2022-09-12T02:27:26;12.27;;;8.80;;
25341;SDS011;13298;48.792;9.154;2022-09-12T02:30:05;12.77;;;10.02;;
25341;SDS011;13298;48.792;9.154;2022-09-12T02:32:35;13.32;;;9.68;;
25341;SDS011;13298;48.792;9.154;2022-09-12T02:35:12;12.90;;;9.15;;
25341;SDS011;13298;48.792;9.154;2022-09-12T02:40:44;12.80;;;10.13;;
25341;SDS011;13298;48.792;9.154;2022-09-12T02:43:10;13.68;;;10.55;;
25341;SDS011;13298;48.792;9.154;2022-09-12T02:45:35;13.10;;;10.07;;
25341;SDS011;13298;48.792;9.154;2022-09-12T02:48:03;13.13;;;9.88;;
25341;SDS011;13298;48.792;9.154;2022-09-12T02:50:34;10.57;;;9.23;;
25341;SDS011;13298;48.792;9.154;2022-09-12T02:53:00;12.80;;;10.50;;
25341;SDS011;13298;48.792;9.154;2022-09-12T02:55:30;12.43;;;9.50;;
25341;SDS011;13298;48.792;9.154;2022-09-12T02:57:58;11.68;;;8.98;;
25341;SDS011;13298;48.792;9.154;2022-09-12T03:00:28;13.00;;;9.95;;
25341;SDS011;13298;48.792;9.154;2022-09-12T03:06:06;12.68;;;10.15;;
25341;SDS011;13298;48.792;9.154;2022-09-12T03:17:20;11.75;;;10.27;;
25341;SDS011;13298;48.792;9.154;2022-09-12T03:20:23;13.65;;;9.70;;
25341;SDS011;13298;48.792;9.154;2022-09-12T03:23:04;12.68;;;9.98;;
25341;SDS011;13298;48.792;9.154;2022-09-12T03:25:58;12.80;;;9.45;;
25341;SDS011;13298;48.792;9.154;2022-09-12T03:28:31;12.07;;;9.30;;
25341;SDS011;13298;48.792;9.154;2022-09-12T03:30:58;13.15;;;9.45;;
25341;SDS011;13298;48.792;9.154;2022-09-12T03:33:24;14.48;;;10.13;;
25341;SDS011;13298;48.792;9.154;2022-09-12T03:35:50;11.43;;;9.35;;
25341;SDS011;13298;48.792;9.154;2022-09-12T03:38:17;13.60;;;9.85;;
25341;SDS011;13298;48.792;9.154;2022-09-12T03:40:44;13.65;;;9.98;;
25341;SDS011;13298;48.792;9.154;2022-09-12T03:43:10;12.82;;;9.15;;
25341;SDS011;13298;48.792;9.154;2022-09-12T03:45:36;11.25;;;9.13;;
25341;SDS011;13298;48.792;9.154;2022-09-12T03:48:03;14.60;;;9.38;;
25341;SDS011;13298;48.792;9.154;2022-09-12T03:50:30;13.82;;;9.68;;
25341;SDS011;13298;48.792;9.154;2022-09-12T03:52:57;12.07;;;9.35;;
25341;SDS011;13298;48.792;9.154;2022-09-12T03:55:24;12.77;;;9.15;;
25341;SDS011;13298;48.792;9.154;2022-09-12T03:57:51;11.70;;;9.48;;
25341;SDS011;13298;48.792;9.154;2022-09-12T04:00:18;12.45;;;9.70;;
25341;SDS011;13298;48.792;9.154;2022-09-12T04:02:43;10.93;;;9.38;;
25341;SDS011;13298;48.792;9.154;2022-09-12T04:05:09;12.35;;;9.85;;
25341;SDS011;13298;48.792;9.154;2022-09-12T04:07:35;13.63;;;10.70;;
25341;SDS011;13298;48.792;9.154;2022-09-12T04:10:00;13.73;;;10.05;;
25341;SDS011;13298;48.792;9.154;2022-09-12T04:12:27;11.38;;;10.13;;
25341;SDS011;13298;48.792;9.154;2022-09-12T04:14:53;15.52;;;11.05;;
25341;SDS011;13298;48.792;9.154;2022-09-12T04:17:19;15.07;;;11.20;;
25341;SDS011;13298;48.792;9.154;2022-09-12T04:19:45;15.13;;;11.18;;
25341;SDS011;13298;48.792;9.154;2022-09-12T04:22:11;16.50;;;10.90;;
25341;SDS011;13298;48.792;9.154;2022-09-12T04:24:37;15.98;;;11.10;;
25341;SDS011;13298;48.792;9.154;2022-09-12T04:27:02;13.80;;;11.25;;
25341;SDS011;13298;48.792;9.154;2022-09-12T04:29:28;16.38;;;11.13;;
25341;SDS011;13298;48.792;9.154;2022-09-12T04:31:55;15.25;;;11.30;;
25341;SDS011;13298;48.792;9.154;2022-09-12T04:34:21;13.95;;;10.88;;
25341;SDS011;13298;48.792;9.154;2022-09-12T04:36:47;17.00;;;11.60;;
25341;SDS011;13298;48.792;9.154;2022-09-12T04:39:12;16.17;;;11.27;;
25341;SDS011;13298;48.792;9.154;2022-09-12T04:41:39;14.00;;;10.65;;
25341;SDS011;13298;48.792;9.154;2022-09-12T04:44:11;13.82;;;11.15;;
25341;SDS011;13298;48.792;9.154;2022-09-12T04:46:39;13.13;;;10.68;;
25341;SDS011;13298;48.792;9.154;2022-09-12T04:49:09;11.52;;;9.75;;
25341;SDS011;13298;48.792;9.154;2022-09-12T04:51:36;13.27;;;10.73;;
25341;SDS011;13298;48.792;9.154;2022-09-12T04:54:07;15.13;;;11.13;;
25341;SDS011;13298;48.792;9.154;2022-09-12T04:56:38;15.50;;;10.50;;
25341;SDS011;13298;48.792;9.154;2022-09-12T04:59:05;16.85;;;10.63;;
25341;SDS011;13298;48.792;9.154;2022-09-12T05:01:32;15.85;;;11.75;;
25341;SDS011;13298;48.792;9.154;2022-09-12T05:03:59;15.52;;;11.60;;
25341;SDS011;13298;48.792;9.154;2022-09-12T05:06:27;14.75;;;11.63;;
25341;SDS011;13298;48.792;9.154;2022-09-12T05:08:56;14.90;;;11.65;;
25341;SDS011;13298;48.792;9.154;2022-09-12T05:11:24;16.55;;;12.20;;
25341;SDS011;13298;48.792;9.154;2022-09-12T05:13:54;15.70;;;12.05;;
25341;SDS011;13298;48.792;9.154;2022-09-12T05:16:20;14.27;;;11.40;;
25341;SDS011;13298;48.792;9.154;2022-09-12T05:18:47;16.73;;;12.27;;
25341;SDS011;13298;48.792;9.154;2022-09-12T05:21:16;15.38;;;11.60;;
25341;SDS011;13298;48.792;9.154;2022-09-12T05:23:44;16.35;;;11.25;;
25341;SDS011;13298;48.792;9.154;2022-09-12T05:26:11;14.00;;;11.60;;
25341;SDS011;13298;48.792;9.154;2022-09-12T05:28:39;16.55;;;11.98;;
25341;SDS011;13298;48.792;9.154;2022-09-12T05:31:06;17.30;;;11.50;;
25341;SDS011;13298;48.792;9.154;2022-09-12T05:33:44;16.13;;;11.77;;
25341;SDS011;13298;48.792;9.154;2022-09-12T05:36:13;14.23;;;11.32;;
25341;SDS011;13298;48.792;9.154;2022-09-12T05:41:11;17.20;;;11.60;;
25341;SDS011;13298;48.792;9.154;2022-09-12T05:43:40;20.63;;;12.57;;
25341;SDS011;13298;48.792;9.154;2022-09-12T05:46:09;15.32;;;11.57;;
25341;SDS011;13298;48.792;9.154;2022-09-12T05:48:38;17.25;;;11.50;;
25341;SDS011;13298;48.792;9.154;2022-09-12T05:51:10;16.80;;;12.50;;
25341;SDS011;13298;48.792;9.154;2022-09-12T05:53:41;15.30;;;12.40;;
25341;SDS011;13298;48.792;9.154;2022-09-12T05:56:11;21.00;;;12.38;;
25341;SDS011;13298;48.792;9.154;2022-09-12T05:58:40;15.23;;;11.85;;
25341;SDS011;13298;48.792;9.154;2022-09-12T06:01:10;16.05;;;12.32;;
25341;SDS011;13298;48.792;9.154;2022-09-12T06:03:41;17.60;;;11.48;;
25341;SDS011;13298;48.792;9.154;2022-09-12T06:06:12;18.33;;;12.60;;
25341;SDS011;13298;48.792;9.154;2022-09-12T06:08:40;17.60;;;13.25;;
25341;SDS011;13298;48.792;9.154;2022-09-12T06:11:09;14.90;;;11.63;;
25341;SDS011;13298;48.792;9.154;2022-09-12T06:13:38;15.07;;;12.07;;
25341;SDS011;13298;48.792;9.154;2022-09-12T06:16:07;14.52;;;11.38;;
25341;SDS011;13298;48.792;9.154;2022-09-12T06:18:39;13.88;;;11.27;;
25341;SDS011;13298;48.792;9.154;2022-09-12T06:21:06;17.13;;;12.30;;
25341;SDS011;13298;48.792;9.154;2022-09-12T06:23:35;13.82;;;11.38;;
25341;SDS011;13298;48.792;9.154;2022-09-12T06:26:02;15.65;;;10.82;;
25341;SDS011;13298;48.792;9.154;2022-09-12T06:28:29;18.98;;;11.32;;
25341;SDS011;13298;48.792;9.154;2022-09-12T06:31:00;15.23;;;11.85;;
25341;SDS011;13298;48.792;9.154;2022-09-12T06:33:29;18.58;;;13.38;;
25341;SDS011;13298;48.792;9.154;2022-09-12T06:36:07;14.63;;;11.60;;
25341;SDS011;13298;48.792;9.154;2022-09-12T06:41:06;12.63;;;10.18;;
25341;SDS011;13298;48.792;9.154;2022-09-12T06:43:35;13.10;;;11.07;;
25341;SDS011;13298;48.792;9.154;2022-09-12T06:46:01;14.40;;;11.60;;
25341;SDS011;13298;48.792;9.154;2022-09-12T06:48:28;15.48;;;11.82;;
25341;SDS011;13298;48.792;9.154;2022-09-12T06:50:57;15.85;;;12.23;;
25341;SDS011;13298;48.792;9.154;2022-09-12T06:53:29;14.27;;;11.75;;
25341;SDS011;13298;48.792;9.154;2022-09-12T06:56:04;17.77;;;12.27;;
25341;SDS011;13298;48.792;9.154;2022-09-12T06:58:34;15.82;;;10.82;;
25341;SDS011;13298;48.792;9.154;2022-09-12T07:01:02;14.70;;;11.27;;
25341;SDS011;13298;48.792;9.154;2022-09-12T07:03:39;18.30;;;10.57;;
25341;SDS011;13298;48.792;9.154;2022-09-12T07:06:06;16.02;;;10.48;;
25341;SDS011;13298;48.792;9.154;2022-09-12T07:08:38;9.82;;;8.07;;
25341;SDS011;13298;48.792;9.154;2022-09-12T07:11:09;12.15;;;10.38;;
25341;SDS011;13298;48.792;9.154;2022-09-12T07:13:41;14.27;;;10.38;;
25341;SDS011;13298;48.792;9.154;2022-09-12T07:16:09;17.02;;;10.60;;
25341;SDS011;13298;48.792;9.154;2022-09-12T07:18:35;13.02;;;10.15;;
25341;SDS011;13298;48.792;9.154;2022-09-12T07:21:02;18.58;;;10.20;;
25341;SDS011;13298;48.792;9.154;2022-09-12T07:23:32;11.35;;;8.40;;
25341;SDS011;13298;48.792;9.154;2022-09-12T07:25:58;11.10;;;8.52;;
25341;SDS011;13298;48.792;9.154;2022-09-12T07:28:25;12.57;;;8.23;;
25341;SDS011;13298;48.792;9.154;2022-09-12T07:30:55;10.85;;;8.38;;
25341;SDS011;13298;48.792;9.154;2022-09-12T07:33:23;9.45;;;6.88;;
25341;SDS011;13298;48.792;9.154;2022-09-12T07:35:52;9.80;;;6.78;;
25341;SDS011;13298;48.792;9.154;2022-09-12T07:38:22;10.23;;;6.93;;
25341;SDS011;13298;48.792;9.154;2022-09-12T07:40:48;11.70;;;8.90;;
25341;SDS011;13298;48.792;9.154;2022-09-12T07:43:14;9.15;;;7.32;;
25341;SDS011;13298;48.792;9.154;2022-09-12T07:45:39;10.32;;;8.20;;
25341;SDS011;13298;48.792;9.154;2022-09-12T07:48:07;9.20;;;6.65;;
25341;SDS011;13298;48.792;9.154;2022-09-12T07:50:33;8.57;;;6.82;;
25341;SDS011;13298;48.792;9.154;2022-09-12T07:53:00;8.98;;;6.97;;
25341;SDS011;13298;48.792;9.154;2022-09-12T07:55:27;11.20;;;6.78;;
25341;SDS011;13298;48.792;9.154;2022-09-12T07:57:53;6.68;;;5.47;;
25341;SDS011;13298;48.792;9.154;2022-09-12T08:00:19;7.45;;;5.25;;
25341;SDS011;13298;48.792;9.154;2022-09-12T08:02:49;8.15;;;5.65;;
25341;SDS011;13298;48.792;9.154;2022-09-12T08:05:16;8.27;;;5.32;;
25341;SDS011;13298;48.792;9.154;2022-09-12T08:07:42;8.93;;;6.07;;
25341;SDS011;13298;48.792;9.154;2022-09-12T08:10:08;9.15;;;5.75;;
25341;SDS011;13298;48.792;9.154;2022-09-12T08:12:34;8.00;;;5.65;;
25341;SDS011;13298;48.792;9.154;2022-09-12T08:15:00;9.55;;;6.72;;
25341;SDS011;13298;48.792;9.154;2022-09-12T08:17:26;6.38;;;5.38;;
25341;SDS011;13298;48.792;9.154;2022-09-12T08:19:53;7.45;;;6.07;;
25341;SDS011;13298;48.792;9.154;2022-09-12T08:22:20;7.22;;;5.90;;
25341;SDS011;13298;48.792;9.154;2022-09-12T08:24:46;7.50;;;5.75;;
25341;SDS011;13298;48.792;9.154;2022-09-12T08:27:13;8.43;;;5.78;;
25341;SDS011;13298;48.792;9.154;2022-09-12T08:29:39;8.07;;;5.55;;
25341;SDS011;13298;48.792;9.154;2022-09-12T08:32:05;7.90;;;5.85;;
25341;SDS011;13298;48.792;9.154;2022-09-12T08:34:31;6.20;;;5.53;;
25341;SDS011;13298;48.792;9.154;2022-09-12T08:36:57;5.60;;;5.10;;
25341;SDS011;13298;48.792;9.154;2022-09-12T08:39:22;9.40;;;5.25;;
25341;SDS011;13298;48.792;9.154;2022-09-12T08:41:54;7.13;;;4.60;;
25341;SDS011;13298;48.792;9.154;2022-09-12T08:47:30;5.55;;;4.57;;
25341;SDS011;13298;48.792;9.154;2022-09-12T08:50:11;9.68;;;3.97;;
25341;SDS011;13298;48.792;9.154;2022-09-12T08:57:55;7.25;;;3.30;;
25341;SDS011;13298;48.792;9.154;2022-09-12T09:00:24;5.47;;;3.63;;
25341;SDS011;13298;48.792;9.154;2022-09-12T09:03:08;5.55;;;3.53;;
25341;SDS011;13298;48.792;9.154;2022-09-12T09:05:59;6.47;;;3.25;;
25341;SDS011;13298;48.792;9.154;2022-09-12T09:08:44;4.63;;;3.35;;
25341;SDS011;13298;48.792;9.154;2022-09-12T09:17:14;4.95;;;3.75;;
25341;SDS011;13298;48.792;9.154;2022-09-12T09:19:51;6.93;;;3.92;;
25341;SDS011;13298;48.792;9.154;2022-09-12T09:22:34;4.30;;;3.55;;
25341;SDS011;13298;48.792;9.154;2022-09-12T09:25:12;4.30;;;3.42;;
25341;SDS011;13298;48.792;9.154;2022-09-12T09:28:03;4.40;;;3.45;;
25341;SDS011;13298;48.792;9.154;2022-09-12T09:30:40;8.43;;;2.90;;
25341;SDS011;13298;48.792;9.154;2022-09-12T09:33:09;5.13;;;3.22;;
25341;SDS011;13298;48.792;9.154;2022-09-12T09:35:46;5.03;;;3.10;;
25341;SDS011;13298;48.792;9.154;2022-09-12T09:44:36;8.15;;;3.15;;
25341;SDS011;13298;48.792;9.154;2022-09-12T09:47:02;4.85;;;3.13;;
25341;SDS011;13298;48.792;9.154;2022-09-12T09:49:30;2.97;;;2.60;;
25341;SDS011;13298;48.792;9.154;2022-09-12T09:51:58;4.53;;;2.88;;
25341;SDS011;13298;48.792;9.154;2022-09-12T09:54:25;4.30;;;3.30;;
25341;SDS011;13298;48.792;9.154;2022-09-12T09:57:00;6.55;;;2.78;;
25341;SDS011;13298;48.792;9.154;2022-09-12T09:59:26;3.20;;;2.80;;
25341;SDS011;13298;48.792;9.154;2022-09-12T10:04:39;3.30;;;2.45;;
25341;SDS011;13298;48.792;9.154;2022-09-12T10:07:18;3.00;;;2.38;;
25341;SDS011;13298;48.792;9.154;2022-09-12T10:12:39;2.88;;;2.22;;
25341;SDS011;13298;48.792;9.154;2022-09-12T10:17:52;2.92;;;2.10;;
25341;SDS011;13298;48.792;9.154;2022-09-12T10:20:38;4.53;;;2.20;;
25341;SDS011;13298;48.792;9.154;2022-09-12T10:23:19;2.83;;;2.00;;
25341;SDS011;13298;48.792;9.154;2022-09-12T10:26:07;2.90;;;2.08;;
25341;SDS011;13298;48.792;9.154;2022-09-12T10:28:40;5.40;;;2.20;;
25341;SDS011;13298;48.792;9.154;2022-09-12T10:36:57;2.08;;;1.88;;
25341;SDS011;13298;48.792;9.154;2022-09-12T10:39:27;3.47;;;2.08;;
25341;SDS011;13298;48.792;9.154;2022-09-12T10:41:53;4.60;;;2.40;;
25341;SDS011;13298;48.792;9.154;2022-09-12T10:44:23;4.22;;;2.13;;
25341;SDS011;13298;48.792;9.154;2022-09-12T10:46:53;5.10;;;1.90;;
25341;SDS011;13298;48.792;9.154;2022-09-12T10:51:51;1.90;;;1.70;;
25341;SDS011;13298;48.792;9.154;2022-09-12T10:54:19;1.92;;;1.70;;
25341;SDS011;13298;48.792;9.154;2022-09-12T11:00:16;6.35;;;1.88;;
25341;SDS011;13298;48.792;9.154;2022-09-12T11:11:33;3.38;;;1.85;;
25341;SDS011;13298;48.792;9.154;2022-09-12T11:14:13;2.63;;;1.60;;
25341;SDS011;13298;48.792;9.154;2022-09-12T11:40:34;1.70;;;1.20;;
25341;SDS011;13298;48.792;9.154;2022-09-12T11:46:04;1.10;;;1.00;;
25341;SDS011;13298;48.792;9.154;2022-09-12T11:48:46;1.27;;;1.17;;
25341;SDS011;13298;48.792;9.154;2022-09-12T11:51:40;1.60;;;1.17;;
25341;SDS011;13298;48.792;9.154;2022-09-12T11:54:37;1.50;;;1.10;;
25341;SDS011;13298;48.792;9.154;2022-09-12T12:00:31;1.10;;;0.73;;
25341;SDS011;13298;48.792;9.154;2022-09-12T12:06:01;0.90;;;0.90;;
25341;SDS011;13298;48.792;9.154;2022-09-12T12:08:42;4.03;;;1.00;;
25341;SDS011;13298;48.792;9.154;2022-09-12T12:11:10;0.90;;;0.90;;
25341;SDS011;13298;48.792;9.154;2022-09-12T12:13:40;2.38;;;1.85;;
25341;SDS011;13298;48.792;9.154;2022-09-12T12:16:29;4.60;;;1.67;;
25341;SDS011;13298;48.792;9.154;2022-09-12T12:18:58;3.95;;;1.20;;
25341;SDS011;13298;48.792;9.154;2022-09-12T12:26:40;0.95;;;0.82;;
25341;SDS011;13298;48.792;9.154;2022-09-12T12:29:10;1.30;;;0.90;;
25341;SDS011;13298;48.792;9.154;2022-09-12T12:34:30;1.30;;;0.85;;
25341;SDS011;13298;48.792;9.154;2022-09-12T12:36:57;2.25;;;0.93;;
25341;SDS011;13298;48.792;9.154;2022-09-12T12:42:09;1.27;;;0.93;;
25341;SDS011;13298;48.792;9.154;2022-09-12T12:44:59;1.25;;;0.80;;
25341;SDS011;13298;48.792;9.154;2022-09-12T12:47:26;3.33;;;1.00;;
25341;SDS011;13298;48.792;9.154;2022-09-12T12:50:20;0.88;;;0.80;;
25341;SDS011;13298;48.792;9.154;2022-09-12T12:52:54;0.93;;;0.85;;
25341;SDS011;13298;48.792;9.154;2022-09-12T12:55:24;4.15;;;1.00;;
25341;SDS011;13298;48.792;9.154;2022-09-12T12:58:28;0.90;;;0.90;;
25341;SDS011;13298;48.792;9.154;2022-09-12T13:01:13;1.73;;;1.00;;
25341;SDS011;13298;48.792;9.154;2022-09-12T13:11:39;1.80;;;1.00;;
25341;SDS011;13298;48.792;9.154;2022-09-12T13:14:08;2.22;;;1.20;;
25341;SDS011;13298;48.792;9.154;2022-09-12T13:17:06;1.42;;;0.93;;
25341;SDS011;13298;48.792;9.154;2022-09-12T13:19:39;1.30;;;1.08;;
25341;SDS011;13298;48.792;9.154;2022-09-12T13:22:06;1.73;;;0.90;;
25341;SDS011;13298;48.792;9.154;2022-09-12T13:24:41;1.00;;;0.90;;
25341;SDS011;13298;48.792;9.154;2022-09-12T13:27:16;1.88;;;1.05;;
25341;SDS011;13298;48.792;9.154;2022-09-12T13:29:44;2.05;;;1.02;;
25341;SDS011;13298;48.792;9.154;2022-09-12T13:32:10;1.38;;;1.00;;
25341;SDS011;13298;48.792;9.154;2022-09-12T13:34:40;1.52;;;0.88;;
25341;SDS011;13298;48.792;9.154;2022-09-12T13:40:21;1.00;;;0.90;;
25341;SDS011;13298;48.792;9.154;2022-09-12T13:43:22;2.38;;;0.95;;
25341;SDS011;13298;48.792;9.154;2022-09-12T13:46:04;1.08;;;0.98;;
25341;SDS011;13298;48.792;9.154;2022-09-12T13:48:32;1.00;;;0.90;;
25341;SDS011;13298;48.792;9.154;2022-09-12T13:50:59;1.08;;;0.80;;
25341;SDS011;13298;48.792;9.154;2022-09-12T13:53:31;1.98;;;0.85;;
25341;SDS011;13298;48.792;9.154;2022-09-12T13:56:07;1.77;;;0.95;;
25341;SDS011;13298;48.792;9.154;2022-09-12T13:58:49;1.13;;;1.02;;
25341;SDS011;13298;48.792;9.154;2022-09-12T14:01:34;0.82;;;0.80;;
25341;SDS011;13298;48.792;9.154;2022-09-12T14:04:16;1.23;;;0.90;;
25341;SDS011;13298;48.792;9.154;2022-09-12T14:07:12;1.20;;;1.00;;
25341;SDS011;13298;48.792;9.154;2022-09-12T14:09:43;0.98;;;0.80;;
25341;SDS011;13298;48.792;9.154;2022-09-12T14:12:38;1.20;;;0.80;;
25341;SDS011;13298;48.792;9.154;2022-09-12T14:15:05;0.82;;;0.80;;
25341;SDS011;13298;48.792;9.154;2022-09-12T14:17:47;1.50;;;0.90;;
25341;SDS011;13298;48.792;9.154;2022-09-12T14:20:18;1.17;;;0.63;;
25341;SDS011;13298;48.792;9.154;2022-09-12T14:22:47;0.70;;;0.70;;
25341;SDS011;13298;48.792;9.154;2022-09-12T14:25:15;0.90;;;0.90;;
25341;SDS011;13298;48.792;9.154;2022-09-12T14:27:53;1.15;;;0.88;;
25341;SDS011;13298;48.792;9.154;2022-09-12T14:30:27;1.00;;;0.90;;
25341;SDS011;13298;48.792;9.154;2022-09-12T14:35:40;1.35;;;0.95;;
25341;SDS011;13298;48.792;9.154;2022-09-12T14:40:41;1.23;;;0.80;;
25341;SDS011;13298;48.792;9.154;2022-09-12T14:43:17;1.67;;;0.70;;
25341;SDS011;13298;48.792;9.154;2022-09-12T14:45:57;0.90;;;0.80;;
25341;SDS011;13298;48.792;9.154;2022-09-12T14:48:48;0.73;;;0.52;;
25341;SDS011;13298;48.792;9.154;2022-09-12T14:51:26;1.75;;;0.98;;
25341;SDS011;13298;48.792;9.154;2022-09-12T14:53:56;0.80;;;0.80;;
25341;SDS011;13298;48.792;9.154;2022-09-12T14:56:36;1.58;;;0.90;;
25341;SDS011;13298;48.792;9.154;2022-09-12T15:09:57;2.60;;;1.00;;
25341;SDS011;13298;48.792;9.154;2022-09-12T15:12:25;0.98;;;0.88;;
25341;SDS011;13298;48.792;9.154;2022-09-12T15:14:51;1.35;;;1.05;;
25341;SDS011;13298;48.792;9.154;2022-09-12T15:17:21;2.17;;;1.00;;
25341;SDS011;13298;48.792;9.154;2022-09-12T15:19:46;1.95;;;0.80;;
25341;SDS011;13298;48.792;9.154;2022-09-12T15:22:12;1.10;;;0.95;;
25341;SDS011;13298;48.792;9.154;2022-09-12T15:24:38;0.88;;;0.77;;
25341;SDS011;13298;48.792;9.154;2022-09-12T15:27:10;0.93;;;0.80;;
25341;SDS011;13298;48.792;9.154;2022-09-12T15:29:36;2.35;;;0.90;;
25341;SDS011;13298;48.792;9.154;2022-09-12T15:32:02;1.58;;;1.00;;
25341;SDS011;13298;48.792;9.154;2022-09-12T15:34:30;1.40;;;0.90;;
25341;SDS011;13298;48.792;9.154;2022-09-12T15:36:57;1.77;;;1.15;;
25341;SDS011;13298;48.792;9.154;2022-09-12T15:39:22;1.10;;;1.00;;
25341;SDS011;13298;48.792;9.154;2022-09-12T15:41:48;2.03;;;0.80;;
25341;SDS011;13298;48.792;9.154;2022-09-12T15:44:14;0.80;;;0.80;;
25341;SDS011;13298;48.792;9.154;2022-09-12T15:46:40;0.93;;;0.80;;
25341;SDS011;13298;48.792;9.154;2022-09-12T15:49:06;0.77;;;0.75;;
25341;SDS011;13298;48.792;9.154;2022-09-12T15:51:31;1.05;;;0.70;;
25341;SDS011;13298;48.792;9.154;2022-09-12T15:53:57;1.48;;;1.00;;
25341;SDS011;13298;48.792;9.154;2022-09-12T15:56:24;0.90;;;0.80;;
25341;SDS011;13298;48.792;9.154;2022-09-12T15:58:50;0.77;;;0.77;;
25341;SDS011;13298;48.792;9.154;2022-09-12T16:01:22;1.25;;;1.00;;
25341;SDS011;13298;48.792;9.154;2022-09-12T16:03:47;4.60;;;1.00;;
25341;SDS011;13298;48.792;9.154;2022-09-12T16:06:13;1.25;;;1.10;;
25341;SDS011;13298;48.792;9.154;2022-09-12T16:08:39;0.70;;;0.70;;
25341;SDS011;13298;48.792;9.154;2022-09-12T16:11:11;1.13;;;0.90;;
25341;SDS011;13298;48.792;9.154;2022-09-12T16:13:50;1.10;;;1.00;;
25341;SDS011;13298;48.792;9.154;2022-09-12T16:16:17;2.25;;;1.30;;
25341;SDS011;13298;48.792;9.154;2022-09-12T16:18:42;2.03;;;1.38;;
25341;SDS011;13298;48.792;9.154;2022-09-12T16:21:08;3.67;;;1.20;;
25341;SDS011;13298;48.792;9.154;2022-09-12T16:23:34;1.60;;;1.10;;
25341;SDS011;13298;48.792;9.154;2022-09-12T16:26:03;2.70;;;1.02;;
25341;SDS011;13298;48.792;9.154;2022-09-12T16:28:30;1.23;;;1.00;;
25341;SDS011;13298;48.792;9.154;2022-09-12T16:30:58;1.23;;;1.13;;
25341;SDS011;13298;48.792;9.154;2022-09-12T16:33:26;1.52;;;1.40;;
25341;SDS011;13298;48.792;9.154;2022-09-12T16:35:52;1.60;;;1.33;;
25341;SDS011;13298;48.792;9.154;2022-09-12T16:38:28;2.30;;;1.30;;
25341;SDS011;13298;48.792;9.154;2022-09-12T16:40:58;1.52;;;1.17;;
25341;SDS011;13298;48.792;9.154;2022-09-12T16:43:30;1.83;;;1.00;;
25341;SDS011;13298;48.792;9.154;2022-09-12T16:46:05;1.20;;;1.10;;
25341;SDS011;13298;48.792;9.154;2022-09-12T16:48:36;1.63;;;1.10;;
25341;SDS011;13298;48.792;9.154;2022-09-12T16:51:08;0.98;;;0.93;;
25341;SDS011;13298;48.792;9.154;2022-09-12T16:53:35;1.40;;;1.20;;
25341;SDS011;13298;48.792;9.154;2022-09-12T16:56:03;1.50;;;1.20;;
25341;SDS011;13298;48.792;9.154;2022-09-12T16:58:33;1.58;;;1.08;;
25341;SDS011;13298;48.792;9.154;2022-09-12T17:03:33;1.00;;;0.90;;
25341;SDS011;13298;48.792;9.154;2022-09-12T17:06:04;1.27;;;1.17;;
25341;SDS011;13298;48.792;9.154;2022-09-12T17:08:33;1.25;;;0.90;;
25341;SDS011;13298;48.792;9.154;2022-09-12T17:11:02;2.05;;;1.27;;
25341;SDS011;13298;48.792;9.154;2022-09-12T17:13:40;1.85;;;1.08;;
25341;SDS011;13298;48.792;9.154;2022-09-12T17:16:11;2.40;;;1.40;;
25341;SDS011;13298;48.792;9.154;2022-09-12T17:18:37;1.65;;;1.20;;
25341;SDS011;13298;48.792;9.154;2022-09-12T17:21:05;1.55;;;1.20;;
25341;SDS011;13298;48.792;9.154;2022-09-12T17:23:32;1.65;;;1.23;;
25341;SDS011;13298;48.792;9.154;2022-09-12T17:25:58;1.42;;;1.20;;
25341;SDS011;13298;48.792;9.154;2022-09-12T17:28:24;1.40;;;1.30;;
25341;SDS011;13298;48.792;9.154;2022-09-12T17:30:56;1.50;;;1.20;;
25341;SDS011;13298;48.792;9.154;2022-09-12T17:33:27;1.75;;;1.20;;
25341;SDS011;13298;48.792;9.154;2022-09-12T17:35:54;1.40;;;1.25;;
25341;SDS011;13298;48.792;9.154;2022-09-12T17:38:24;3.30;;;1.70;;
25341;SDS011;13298;48.792;9.154;2022-09-12T17:40:50;1.95;;;1.45;;
25341;SDS011;13298;48.792;9.154;2022-09-12T17:43:16;1.25;;;1.08;;
25341;SDS011;13298;48.792;9.154;2022-09-12T17:45:41;2.58;;;1.40;;
25341;SDS011;13298;48.792;9.154;2022-09-12T17:48:08;1.92;;;1.52;;
25341;SDS011;13298;48.792;9.154;2022-09-12T17:50:38;2.72;;;1.77;;